sensor_id;sensor_type;location;lat;lon;timestamp;pressure;altitude;pressure_sealevel;temperature;humidity
22653;BME280;11493;43.344;26.226;2023-05-21T00:00:28;99211.50;;;13.63;100.00
22653;BME280;11493;43.344;26.226;2023-05-21T00:02:56;99214.41;;;13.66;100.00
22653;BME280;11493;43.344;26.226;2023-05-21T00:05:25;99211.38;;;13.59;100.00
22653;BME280;11493;43.344;26.226;2023-05-21T00:07:52;99214.25;;;13.63;100.00
22653;BME280;11493;43.344;26.226;2023-05-21T00:10:20;99212.31;;;13.63;100.00
22653;BME280;11493;43.344;26.226;2023-05-21T00:12:48;99203.28;;;13.54;100.00
22653;BME280;11493;43.344;26.226;2023-05-21T00:15:15;99193.38;;;13.53;100.00
22653;BME280;11493;43.344;26.226;2023-05-21T00:17:42;99198.88;;;13.53;100.00
22653;BME280;11493;43.344;26.226;2023-05-21T00:20:10;99189.44;;;13.54;100.00
22653;BME280;11493;43.344;26.226;2023-05-21T00:22:38;99198.22;;;13.56;100.00
22653;BME280;11493;43.344;26.226;2023-05-21T00:25:09;99198.88;;;13.53;100.00
22653;BME280;11493;43.344;26.226;2023-05-21T00:27:36;99195.19;;;13.49;100.00
22653;BME280;11493;43.344;26.226;2023-05-21T00:30:05;99184.78;;;13.46;100.00
22653;BME280;11493;43.344;26.226;2023-05-21T00:32:32;99186.22;;;13.52;100.00
22653;BME280;11493;43.344;26.226;2023-05-21T00:34:59;99179.06;;;13.51;100.00
22653;BME280;11493;43.344;26.226;2023-05-21T00:37:26;99174.69;;;13.50;100.00
22653;BME280;11493;43.344;26.226;2023-05-21T00:40:00;99171.91;;;13.50;100.00
22653;BME280;11493;43.344;26.226;2023-05-21T00:42:28;99183.13;;;13.54;100.00
22653;BME280;11493;43.344;26.226;2023-05-21T00:44:56;99173.00;;;13.58;100.00
22653;BME280;11493;43.344;26.226;2023-05-21T00:47:24;99158.56;;;13.52;100.00
22653;BME280;11493;43.344;26.226;2023-05-21T00:49:53;99169.84;;;13.47;100.00
22653;BME280;11493;43.344;26.226;2023-05-21T00:52:20;99167.59;;;13.40;100.00
22653;BME280;11493;43.344;26.226;2023-05-21T00:54:48;99169.38;;;13.45;100.00
22653;BME280;11493;43.344;26.226;2023-05-21T00:57:21;99166.13;;;13.43;100.00
22653;BME280;11493;43.344;26.226;2023-05-21T00:59:50;99168.56;;;13.44;100.00
22653;BME280;11493;43.344;26.226;2023-05-21T01:02:18;99178.13;;;13.47;100.00
22653;BME280;11493;43.344;26.226;2023-05-21T01:04:46;99165.44;;;13.46;100.00
22653;BME280;11493;43.344;26.226;2023-05-21T01:07:13;99170.50;;;13.44;100.00
22653;BME280;11493;43.344;26.226;2023-05-21T01:09:42;99163.03;;;13.44;100.00
22653;BME280;11493;43.344;26.226;2023-05-21T01:12:09;99152.97;;;13.40;100.00
22653;BME280;11493;43.344;26.226;2023-05-21T01:14:37;99170.28;;;13.37;100.00
22653;BME280;11493;43.344;26.226;2023-05-21T01:17:05;99142.84;;;13.32;100.00
22653;BME280;11493;43.344;26.226;2023-05-21T01:19:36;99142.22;;;13.26;100.00
22653;BME280;11493;43.344;26.226;2023-05-21T01:22:05;99137.72;;;13.22;100.00
22653;BME280;11493;43.344;26.226;2023-05-21T01:24:34;99159.41;;;13.32;100.00
22653;BME280;11493;43.344;26.226;2023-05-21T01:27:02;99137.72;;;13.22;100.00
22653;BME280;11493;43.344;26.226;2023-05-21T01:29:32;99153.06;;;13.31;100.00
22653;BME280;11493;43.344;26.226;2023-05-21T01:32:17;99156.03;;;13.26;100.00
22653;BME280;11493;43.344;26.226;2023-05-21T01:35:10;99146.75;;;13.31;100.00
22653;BME280;11493;43.344;26.226;2023-05-21T01:41:24;99131.56;;;13.16;100.00
22653;BME280;11493;43.344;26.226;2023-05-21T01:43:40;99132.38;;;13.17;100.00
22653;BME280;11493;43.344;26.226;2023-05-21T01:46:14;99136.94;;;13.12;100.00
22653;BME280;11493;43.344;26.226;2023-05-21T01:48:42;99112.19;;;12.95;100.00
22653;BME280;11493;43.344;26.226;2023-05-21T01:51:10;99139.75;;;13.04;100.00
22653;BME280;11493;43.344;26.226;2023-05-21T01:53:38;99121.44;;;12.99;100.00
22653;BME280;11493;43.344;26.226;2023-05-21T01:56:07;99130.38;;;12.96;100.00
22653;BME280;11493;43.344;26.226;2023-05-21T01:58:34;99134.63;;;12.94;100.00
22653;BME280;11493;43.344;26.226;2023-05-21T02:01:01;99136.38;;;12.98;100.00
22653;BME280;11493;43.344;26.226;2023-05-21T02:03:29;99129.28;;;12.89;100.00
22653;BME280;11493;43.344;26.226;2023-05-21T02:05:57;99134.81;;;12.89;100.00
22653;BME280;11493;43.344;26.226;2023-05-21T02:08:24;99135.78;;;12.93;100.00
22653;BME280;11493;43.344;26.226;2023-05-21T02:10:53;99122.53;;;12.77;100.00
22653;BME280;11493;43.344;26.226;2023-05-21T02:13:20;99121.06;;;12.80;100.00
22653;BME280;11493;43.344;26.226;2023-05-21T02:15:52;99138.78;;;12.79;100.00
22653;BME280;11493;43.344;26.226;2023-05-21T02:18:21;99133.25;;;12.79;100.00
22653;BME280;11493;43.344;26.226;2023-05-21T02:20:49;99122.25;;;12.70;100.00
22653;BME280;11493;43.344;26.226;2023-05-21T02:23:16;99121.44;;;12.70;100.00
22653;BME280;11493;43.344;26.226;2023-05-21T02:25:43;99112.16;;;12.74;100.00
22653;BME280;11493;43.344;26.226;2023-05-21T02:28:10;99113.84;;;12.67;100.00
22653;BME280;11493;43.344;26.226;2023-05-21T02:30:38;99120.31;;;12.71;100.00
22653;BME280;11493;43.344;26.226;2023-05-21T02:33:05;99115.94;;;12.70;100.00
22653;BME280;11493;43.344;26.226;2023-05-21T02:35:35;99136.41;;;12.69;100.00
22653;BME280;11493;43.344;26.226;2023-05-21T02:38:02;99126.03;;;12.66;100.00
22653;BME280;11493;43.344;26.226;2023-05-21T02:40:30;99120.84;;;12.64;100.00
22653;BME280;11493;43.344;26.226;2023-05-21T02:42:58;99127.38;;;12.60;100.00
22653;BME280;11493;43.344;26.226;2023-05-21T02:45:27;99140.72;;;12.58;100.00
22653;BME280;11493;43.344;26.226;2023-05-21T02:47:54;99119.19;;;12.42;100.00
22653;BME280;11493;43.344;26.226;2023-05-21T02:50:21;99125.47;;;12.52;100.00
22653;BME280;11493;43.344;26.226;2023-05-21T02:52:55;99128.41;;;12.46;100.00
22653;BME280;11493;43.344;26.226;2023-05-21T02:55:22;99138.31;;;12.47;100.00
22653;BME280;11493;43.344;26.226;2023-05-21T02:57:50;99135.88;;;12.46;100.00
22653;BME280;11493;43.344;26.226;2023-05-21T03:00:17;99136.03;;;12.49;100.00
22653;BME280;11493;43.344;26.226;2023-05-21T03:02:44;99111.94;;;12.29;100.00
22653;BME280;11493;43.344;26.226;2023-05-21T03:05:12;99138.03;;;12.40;100.00
22653;BME280;11493;43.344;26.226;2023-05-21T03:07:39;99135.94;;;12.37;100.00
22653;BME280;11493;43.344;26.226;2023-05-21T03:10:08;99123.31;;;12.28;100.00
22653;BME280;11493;43.344;26.226;2023-05-21T03:12:36;99137.06;;;12.36;100.00
22653;BME280;11493;43.344;26.226;2023-05-21T03:15:04;99144.16;;;12.46;100.00
22653;BME280;11493;43.344;26.226;2023-05-21T03:17:31;99143.16;;;12.50;100.00
22653;BME280;11493;43.344;26.226;2023-05-21T03:19:59;99134.13;;;12.41;100.00
22653;BME280;11493;43.344;26.226;2023-05-21T03:22:26;99146.44;;;12.44;100.00
22653;BME280;11493;43.344;26.226;2023-05-21T03:24:53;99139.00;;;12.36;100.00
22653;BME280;11493;43.344;26.226;2023-05-21T03:27:20;99151.63;;;12.45;100.00
22653;BME280;11493;43.344;26.226;2023-05-21T03:29:48;99141.06;;;12.47;100.00
22653;BME280;11493;43.344;26.226;2023-05-21T03:32:16;99149.16;;;12.53;100.00
22653;BME280;11493;43.344;26.226;2023-05-21T03:34:45;99162.63;;;12.54;100.00
22653;BME280;11493;43.344;26.226;2023-05-21T03:37:13;99152.59;;;12.49;100.00
22653;BME280;11493;43.344;26.226;2023-05-21T03:39:41;99152.25;;;12.51;100.00
22653;BME280;11493;43.344;26.226;2023-05-21T03:42:08;99150.13;;;12.57;100.00
22653;BME280;11493;43.344;26.226;2023-05-21T03:44:45;99151.75;;;12.58;100.00
22653;BME280;11493;43.344;26.226;2023-05-21T03:47:31;99153.38;;;12.59;100.00
22653;BME280;11493;43.344;26.226;2023-05-21T03:50:00;99160.44;;;12.68;100.00
22653;BME280;11493;43.344;26.226;2023-05-21T03:52:28;99154.44;;;12.66;100.00
22653;BME280;11493;43.344;26.226;2023-05-21T03:54:55;99168.34;;;12.78;100.00
22653;BME280;11493;43.344;26.226;2023-05-21T03:57:22;99152.28;;;12.72;100.00
22653;BME280;11493;43.344;26.226;2023-05-21T03:59:49;99167.75;;;12.94;100.00
22653;BME280;11493;43.344;26.226;2023-05-21T04:02:17;99165.16;;;12.97;100.00
22653;BME280;11493;43.344;26.226;2023-05-21T04:04:44;99177.94;;;13.02;100.00
22653;BME280;11493;43.344;26.226;2023-05-21T04:07:13;99160.84;;;13.08;100.00
22653;BME280;11493;43.344;26.226;2023-05-21T04:09:41;99158.56;;;13.10;100.00
22653;BME280;11493;43.344;26.226;2023-05-21T04:12:08;99162.56;;;13.22;100.00
22653;BME280;11493;43.344;26.226;2023-05-21T04:14:36;99163.19;;;13.27;100.00
22653;BME280;11493;43.344;26.226;2023-05-21T04:17:03;99155.50;;;13.33;100.00
22653;BME280;11493;43.344;26.226;2023-05-21T04:19:31;99160.72;;;13.46;100.00
22653;BME280;11493;43.344;26.226;2023-05-21T04:22:01;99133.91;;;13.47;100.00
22653;BME280;11493;43.344;26.226;2023-05-21T04:24:29;99152.56;;;13.50;100.00
22653;BME280;11493;43.344;26.226;2023-05-21T04:27:05;99160.47;;;13.60;100.00
22653;BME280;11493;43.344;26.226;2023-05-21T04:29:32;99167.72;;;13.65;100.00
22653;BME280;11493;43.344;26.226;2023-05-21T04:32:00;99168.81;;;13.72;100.00
22653;BME280;11493;43.344;26.226;2023-05-21T04:34:27;99151.06;;;13.73;100.00
22653;BME280;11493;43.344;26.226;2023-05-21T04:36:55;99173.03;;;13.91;100.00
22653;BME280;11493;43.344;26.226;2023-05-21T04:39:23;99162.31;;;13.89;100.00
22653;BME280;11493;43.344;26.226;2023-05-21T04:41:50;99164.03;;;13.94;100.00
22653;BME280;11493;43.344;26.226;2023-05-21T04:44:20;99155.19;;;14.00;100.00
22653;BME280;11493;43.344;26.226;2023-05-21T04:46:48;99174.22;;;14.14;100.00
22653;BME280;11493;43.344;26.226;2023-05-21T04:49:16;99158.56;;;14.18;100.00
22653;BME280;11493;43.344;26.226;2023-05-21T04:51:43;99181.66;;;14.34;100.00
22653;BME280;11493;43.344;26.226;2023-05-21T04:54:10;99175.91;;;14.39;100.00
22653;BME280;11493;43.344;26.226;2023-05-21T04:56:38;99174.56;;;14.45;100.00
22653;BME280;11493;43.344;26.226;2023-05-21T04:59:05;99185.41;;;14.63;100.00
22653;BME280;11493;43.344;26.226;2023-05-21T05:01:32;99168.81;;;14.63;100.00
22653;BME280;11493;43.344;26.226;2023-05-21T05:04:01;99175.84;;;14.72;100.00
22653;BME280;11493;43.344;26.226;2023-05-21T05:06:29;99169.84;;;14.83;100.00
22653;BME280;11493;43.344;26.226;2023-05-21T05:08:56;99155.19;;;14.70;100.00
22653;BME280;11493;43.344;26.226;2023-05-21T05:11:25;99173.97;;;14.89;100.00
22653;BME280;11493;43.344;26.226;2023-05-21T05:13:54;99163.56;;;14.98;100.00
22653;BME280;11493;43.344;26.226;2023-05-21T05:16:21;99165.53;;;15.09;100.00
22653;BME280;11493;43.344;26.226;2023-05-21T05:18:54;99171.53;;;15.11;100.00
22653;BME280;11493;43.344;26.226;2023-05-21T05:21:21;99154.44;;;15.09;100.00
22653;BME280;11493;43.344;26.226;2023-05-21T05:23:49;99160.63;;;15.31;100.00
22653;BME280;11493;43.344;26.226;2023-05-21T05:26:18;99170.69;;;15.35;100.00
22653;BME280;11493;43.344;26.226;2023-05-21T05:28:46;99173.97;;;15.53;100.00
22653;BME280;11493;43.344;26.226;2023-05-21T05:31:13;99164.81;;;15.65;100.00
22653;BME280;11493;43.344;26.226;2023-05-21T05:33:42;99159.22;;;15.77;100.00
22653;BME280;11493;43.344;26.226;2023-05-21T05:36:10;99161.66;;;15.78;100.00
22653;BME280;11493;43.344;26.226;2023-05-21T05:38:37;99169.22;;;15.94;100.00
22653;BME280;11493;43.344;26.226;2023-05-21T05:41:04;99153.09;;;15.99;100.00
22653;BME280;11493;43.344;26.226;2023-05-21T05:43:31;99148.66;;;16.10;100.00
22653;BME280;11493;43.344;26.226;2023-05-21T05:45:59;99157.81;;;16.27;100.00
22653;BME280;11493;43.344;26.226;2023-05-21T05:48:27;99149.66;;;16.18;100.00
22653;BME280;11493;43.344;26.226;2023-05-21T05:50:55;99160.31;;;16.32;100.00
22653;BME280;11493;43.344;26.226;2023-05-21T05:53:24;99158.34;;;16.48;100.00
22653;BME280;11493;43.344;26.226;2023-05-21T05:55:52;99165.41;;;16.61;100.00
22653;BME280;11493;43.344;26.226;2023-05-21T05:58:19;99131.56;;;16.56;100.00
22653;BME280;11493;43.344;26.226;2023-05-21T06:00:56;99171.81;;;16.78;100.00
22653;BME280;11493;43.344;26.226;2023-05-21T06:03:25;99162.56;;;16.89;100.00
22653;BME280;11493;43.344;26.226;2023-05-21T06:05:53;99146.63;;;16.86;100.00
22653;BME280;11493;43.344;26.226;2023-05-21T06:08:21;99146.59;;;17.02;100.00
22653;BME280;11493;43.344;26.226;2023-05-21T06:10:50;99160.88;;;17.20;100.00
22653;BME280;11493;43.344;26.226;2023-05-21T06:13:17;99152.41;;;17.32;100.00
22653;BME280;11493;43.344;26.226;2023-05-21T06:15:45;99151.91;;;17.46;100.00
22653;BME280;11493;43.344;26.226;2023-05-21T06:18:13;99154.41;;;17.51;100.00
22653;BME280;11493;43.344;26.226;2023-05-21T06:20:41;99154.91;;;17.56;100.00
22653;BME280;11493;43.344;26.226;2023-05-21T06:23:07;99154.00;;;17.68;100.00
22653;BME280;11493;43.344;26.226;2023-05-21T06:25:35;99155.03;;;17.79;100.00
22653;BME280;11493;43.344;26.226;2023-05-21T06:28:04;99147.28;;;17.92;100.00
22653;BME280;11493;43.344;26.226;2023-05-21T06:30:32;99151.47;;;18.01;100.00
22653;BME280;11493;43.344;26.226;2023-05-21T06:32:59;99154.00;;;18.10;100.00
22653;BME280;11493;43.344;26.226;2023-05-21T06:35:27;99141.00;;;17.95;100.00
22653;BME280;11493;43.344;26.226;2023-05-21T06:37:54;99149.19;;;18.07;100.00
22653;BME280;11493;43.344;26.226;2023-05-21T06:40:21;99144.63;;;18.18;100.00
22653;BME280;11493;43.344;26.226;2023-05-21T06:42:52;99157.50;;;18.26;100.00
22653;BME280;11493;43.344;26.226;2023-05-21T06:45:35;99148.63;;;18.21;100.00
22653;BME280;11493;43.344;26.226;2023-05-21T06:48:13;99150.38;;;18.52;100.00
22653;BME280;11493;43.344;26.226;2023-05-21T06:50:43;99133.97;;;18.47;98.56
22653;BME280;11493;43.344;26.226;2023-05-21T06:53:10;99138.75;;;18.69;98.26
22653;BME280;11493;43.344;26.226;2023-05-21T06:55:39;99131.25;;;18.73;100.00
22653;BME280;11493;43.344;26.226;2023-05-21T06:58:17;99139.56;;;18.96;97.33
22653;BME280;11493;43.344;26.226;2023-05-21T07:00:46;99134.91;;;19.03;96.53
22653;BME280;11493;43.344;26.226;2023-05-21T07:03:13;99140.59;;;19.11;96.99
22653;BME280;11493;43.344;26.226;2023-05-21T07:05:41;99139.19;;;19.24;97.23
22653;BME280;11493;43.344;26.226;2023-05-21T07:08:09;99149.47;;;19.20;95.96
22653;BME280;11493;43.344;26.226;2023-05-21T07:10:38;99140.78;;;19.25;93.51
22653;BME280;11493;43.344;26.226;2023-05-21T07:13:05;99138.13;;;19.06;93.33
22653;BME280;11493;43.344;26.226;2023-05-21T07:15:33;99128.34;;;18.92;94.70
22653;BME280;11493;43.344;26.226;2023-05-21T07:18:01;99132.75;;;19.20;93.82
22653;BME280;11493;43.344;26.226;2023-05-21T07:20:28;99119.97;;;19.19;94.52
22653;BME280;11493;43.344;26.226;2023-05-21T07:22:59;99124.53;;;19.34;91.73
22653;BME280;11493;43.344;26.226;2023-05-21T07:25:26;99121.53;;;19.46;92.95
22653;BME280;11493;43.344;26.226;2023-05-21T07:27:54;99120.25;;;19.70;93.41
22653;BME280;11493;43.344;26.226;2023-05-21T07:30:21;99127.81;;;19.69;90.07
22653;BME280;11493;43.344;26.226;2023-05-21T07:32:48;99114.25;;;19.68;92.21
22653;BME280;11493;43.344;26.226;2023-05-21T07:35:18;99101.56;;;19.74;86.92
22653;BME280;11493;43.344;26.226;2023-05-21T07:37:46;99066.75;;;19.64;87.40
22653;BME280;11493;43.344;26.226;2023-05-21T07:40:13;99108.19;;;19.96;88.90
22653;BME280;11493;43.344;26.226;2023-05-21T07:42:42;99115.03;;;20.06;88.14
22653;BME280;11493;43.344;26.226;2023-05-21T07:45:10;99117.59;;;20.21;89.99
22653;BME280;11493;43.344;26.226;2023-05-21T07:47:43;99127.66;;;20.29;90.97
22653;BME280;11493;43.344;26.226;2023-05-21T07:50:13;99114.63;;;20.41;89.14
22653;BME280;11493;43.344;26.226;2023-05-21T07:52:40;99124.63;;;20.45;93.05
22653;BME280;11493;43.344;26.226;2023-05-21T07:55:08;99125.91;;;20.55;89.94
22653;BME280;11493;43.344;26.226;2023-05-21T07:57:37;99123.13;;;20.55;87.55
22653;BME280;11493;43.344;26.226;2023-05-21T08:00:11;99117.47;;;20.48;87.46
22653;BME280;11493;43.344;26.226;2023-05-21T08:02:49;99106.81;;;20.60;88.18
22653;BME280;11493;43.344;26.226;2023-05-21T08:05:19;99121.31;;;20.80;86.23
22653;BME280;11493;43.344;26.226;2023-05-21T08:07:47;99124.09;;;20.80;84.94
22653;BME280;11493;43.344;26.226;2023-05-21T08:10:14;99125.31;;;20.79;84.71
22653;BME280;11493;43.344;26.226;2023-05-21T08:12:47;99111.59;;;20.60;85.45
22653;BME280;11493;43.344;26.226;2023-05-21T08:15:14;99120.75;;;20.57;86.30
22653;BME280;11493;43.344;26.226;2023-05-21T08:17:44;99124.66;;;20.49;85.72
22653;BME280;11493;43.344;26.226;2023-05-21T08:20:13;99110.50;;;20.31;87.50
22653;BME280;11493;43.344;26.226;2023-05-21T08:22:41;99125.22;;;20.24;90.75
22653;BME280;11493;43.344;26.226;2023-05-21T08:25:09;99131.28;;;20.33;91.23
22653;BME280;11493;43.344;26.226;2023-05-21T08:27:36;99113.31;;;20.31;91.85
22653;BME280;11493;43.344;26.226;2023-05-21T08:30:05;99101.88;;;20.43;92.27
22653;BME280;11493;43.344;26.226;2023-05-21T08:32:33;99120.13;;;20.78;91.21
22653;BME280;11493;43.344;26.226;2023-05-21T08:35:00;99102.59;;;20.88;90.02
22653;BME280;11493;43.344;26.226;2023-05-21T08:37:46;99114.03;;;21.23;85.76
22653;BME280;11493;43.344;26.226;2023-05-21T08:40:21;99119.63;;;21.23;81.84
22653;BME280;11493;43.344;26.226;2023-05-21T08:42:49;99115.25;;;21.26;83.39
22653;BME280;11493;43.344;26.226;2023-05-21T08:45:24;99116.56;;;21.46;80.94
22653;BME280;11493;43.344;26.226;2023-05-21T08:47:56;99113.75;;;21.46;80.89
22653;BME280;11493;43.344;26.226;2023-05-21T08:50:27;99121.00;;;21.61;77.23
22653;BME280;11493;43.344;26.226;2023-05-21T08:52:59;99123.81;;;21.69;78.40
22653;BME280;11493;43.344;26.226;2023-05-21T08:55:36;99101.44;;;21.72;78.34
22653;BME280;11493;43.344;26.226;2023-05-21T08:58:04;99111.03;;;21.68;77.50
22653;BME280;11493;43.344;26.226;2023-05-21T09:00:32;99106.66;;;21.77;74.23
22653;BME280;11493;43.344;26.226;2023-05-21T09:03:00;99103.16;;;22.02;77.61
22653;BME280;11493;43.344;26.226;2023-05-21T09:05:29;99106.81;;;22.27;75.33
22653;BME280;11493;43.344;26.226;2023-05-21T09:08:22;99114.41;;;22.44;76.52
22653;BME280;11493;43.344;26.226;2023-05-21T09:11:00;99114.41;;;22.62;76.06
22653;BME280;11493;43.344;26.226;2023-05-21T09:13:43;99117.22;;;22.76;74.86
22653;BME280;11493;43.344;26.226;2023-05-21T09:16:19;99114.44;;;22.90;69.42
22653;BME280;11493;43.344;26.226;2023-05-21T09:18:48;99112.41;;;22.98;66.74
22653;BME280;11493;43.344;26.226;2023-05-21T09:21:28;99111.63;;;22.90;61.94
22653;BME280;11493;43.344;26.226;2023-05-21T09:24:11;99104.00;;;23.02;63.53
22653;BME280;11493;43.344;26.226;2023-05-21T09:26:44;99106.34;;;23.17;63.49
22653;BME280;11493;43.344;26.226;2023-05-21T09:29:11;99084.69;;;23.18;62.40
22653;BME280;11493;43.344;26.226;2023-05-21T09:31:43;99100.31;;;23.15;62.16
22653;BME280;11493;43.344;26.226;2023-05-21T09:34:13;99106.72;;;23.19;61.72
22653;BME280;11493;43.344;26.226;2023-05-21T09:36:42;99105.53;;;23.24;59.19
22653;BME280;11493;43.344;26.226;2023-05-21T09:39:09;99111.50;;;23.33;59.77
22653;BME280;11493;43.344;26.226;2023-05-21T09:41:43;99105.06;;;23.40;59.84
22653;BME280;11493;43.344;26.226;2023-05-21T09:44:10;99099.03;;;23.45;60.58
22653;BME280;11493;43.344;26.226;2023-05-21T09:46:40;99114.28;;;23.44;57.33
22653;BME280;11493;43.344;26.226;2023-05-21T09:49:24;99095.47;;;23.37;57.38
22653;BME280;11493;43.344;26.226;2023-05-21T09:51:56;99099.06;;;23.34;57.60
22653;BME280;11493;43.344;26.226;2023-05-21T09:54:24;99108.66;;;23.47;56.92
22653;BME280;11493;43.344;26.226;2023-05-21T09:56:52;99099.00;;;23.52;57.03
22653;BME280;11493;43.344;26.226;2023-05-21T09:59:19;99103.06;;;23.40;57.70
22653;BME280;11493;43.344;26.226;2023-05-21T10:01:50;99110.69;;;23.40;57.60
22653;BME280;11493;43.344;26.226;2023-05-21T10:04:20;99110.72;;;23.29;56.93
22653;BME280;11493;43.344;26.226;2023-05-21T10:06:49;99105.56;;;23.10;58.06
22653;BME280;11493;43.344;26.226;2023-05-21T10:09:17;99098.00;;;22.92;60.32
22653;BME280;11493;43.344;26.226;2023-05-21T10:11:46;99102.81;;;22.96;60.54
22653;BME280;11493;43.344;26.226;2023-05-21T10:14:18;99100.00;;;22.96;61.09
22653;BME280;11493;43.344;26.226;2023-05-21T10:16:46;99095.97;;;22.97;61.13
22653;BME280;11493;43.344;26.226;2023-05-21T10:19:14;99110.41;;;22.99;61.40
22653;BME280;11493;43.344;26.226;2023-05-21T10:21:42;99111.19;;;23.03;58.84
22653;BME280;11493;43.344;26.226;2023-05-21T10:24:10;99106.75;;;23.09;58.74
22653;BME280;11493;43.344;26.226;2023-05-21T10:26:40;99103.94;;;23.09;60.38
22653;BME280;11493;43.344;26.226;2023-05-21T10:29:07;99107.13;;;23.25;61.13
22653;BME280;11493;43.344;26.226;2023-05-21T10:31:37;99100.72;;;23.21;58.97
22653;BME280;11493;43.344;26.226;2023-05-21T10:34:05;99115.13;;;23.26;59.21
22653;BME280;11493;43.344;26.226;2023-05-21T10:36:33;99113.53;;;23.29;58.60
22653;BME280;11493;43.344;26.226;2023-05-21T10:39:01;99112.31;;;23.30;59.20
22653;BME280;11493;43.344;26.226;2023-05-21T10:41:37;99114.34;;;23.26;57.84
22653;BME280;11493;43.344;26.226;2023-05-21T10:44:20;99086.31;;;23.08;57.46
22653;BME280;11493;43.344;26.226;2023-05-21T10:47:04;99109.94;;;23.25;56.23
22653;BME280;11493;43.344;26.226;2023-05-21T10:55:46;99105.44;;;23.59;58.11
22653;BME280;11493;43.344;26.226;2023-05-21T11:01:13;99095.56;;;24.03;57.99
22653;BME280;11493;43.344;26.226;2023-05-21T11:03:41;99092.25;;;24.19;56.78
22653;BME280;11493;43.344;26.226;2023-05-21T11:06:09;99086.97;;;24.24;56.26
22653;BME280;11493;43.344;26.226;2023-05-21T11:08:37;99082.13;;;24.36;56.44
22653;BME280;11493;43.344;26.226;2023-05-21T11:11:04;99080.03;;;24.47;55.56
22653;BME280;11493;43.344;26.226;2023-05-21T11:13:47;99074.38;;;24.50;55.87
22653;BME280;11493;43.344;26.226;2023-05-21T11:16:17;99068.22;;;24.59;55.20
22653;BME280;11493;43.344;26.226;2023-05-21T11:21:16;99053.34;;;24.62;52.84
22653;BME280;11493;43.344;26.226;2023-05-21T11:26:21;99009.16;;;24.59;51.82
22653;BME280;11493;43.344;26.226;2023-05-21T11:28:50;99048.16;;;25.02;51.37
22653;BME280;11493;43.344;26.226;2023-05-21T11:31:33;99044.13;;;25.03;51.51
22653;BME280;11493;43.344;26.226;2023-05-21T11:34:10;99051.22;;;25.14;47.72
22653;BME280;11493;43.344;26.226;2023-05-21T11:36:39;99051.22;;;25.14;46.42
22653;BME280;11493;43.344;26.226;2023-05-21T11:39:10;99050.59;;;25.00;46.27
22653;BME280;11493;43.344;26.226;2023-05-21T11:41:59;99052.31;;;24.86;44.04
22653;BME280;11493;43.344;26.226;2023-05-21T11:44:44;99052.22;;;24.94;45.77
22653;BME280;11493;43.344;26.226;2023-05-21T11:47:13;99058.25;;;24.96;42.74
22653;BME280;11493;43.344;26.226;2023-05-21T11:49:41;99044.13;;;25.03;43.10
22653;BME280;11493;43.344;26.226;2023-05-21T11:52:09;99024.88;;;24.98;43.11
22653;BME280;11493;43.344;26.226;2023-05-21T11:54:41;99032.06;;;25.02;42.74
22653;BME280;11493;43.344;26.226;2023-05-21T11:57:09;99034.72;;;25.16;43.39
22653;BME280;11493;43.344;26.226;2023-05-21T11:59:36;99040.53;;;25.33;42.82
22653;BME280;11493;43.344;26.226;2023-05-21T12:02:03;99033.41;;;25.25;42.17
22653;BME280;11493;43.344;26.226;2023-05-21T12:04:32;99022.00;;;25.35;42.32
22653;BME280;11493;43.344;26.226;2023-05-21T12:07:02;99027.25;;;25.33;44.47
22653;BME280;11493;43.344;26.226;2023-05-21T12:09:31;99019.81;;;25.19;44.74
22653;BME280;11493;43.344;26.226;2023-05-21T12:12:04;99035.34;;;24.97;46.23
22653;BME280;11493;43.344;26.226;2023-05-21T12:14:33;99024.16;;;24.86;47.14
22653;BME280;11493;43.344;26.226;2023-05-21T12:17:01;99012.81;;;24.97;48.11
22653;BME280;11493;43.344;26.226;2023-05-21T12:19:34;99008.94;;;24.80;46.80
22653;BME280;11493;43.344;26.226;2023-05-21T12:22:02;98996.81;;;24.87;46.55
22653;BME280;11493;43.344;26.226;2023-05-21T12:24:30;99013.28;;;24.88;46.57
22653;BME280;11493;43.344;26.226;2023-05-21T12:26:58;99006.44;;;24.89;47.22
22653;BME280;11493;43.344;26.226;2023-05-21T12:29:30;98985.59;;;24.83;47.99
22653;BME280;11493;43.344;26.226;2023-05-21T12:31:59;98998.75;;;24.94;47.91
22653;BME280;11493;43.344;26.226;2023-05-21T12:34:47;98990.38;;;24.86;49.09
22653;BME280;11493;43.344;26.226;2023-05-21T12:37:23;99003.94;;;24.99;45.71
22653;BME280;11493;43.344;26.226;2023-05-21T12:39:52;98995.88;;;25.01;41.60
22653;BME280;11493;43.344;26.226;2023-05-21T12:42:30;99007.44;;;25.10;43.07
22653;BME280;11493;43.344;26.226;2023-05-21T12:44:57;98921.41;;;24.71;40.80
22653;BME280;11493;43.344;26.226;2023-05-21T12:47:25;98985.81;;;25.34;41.34
22653;BME280;11493;43.344;26.226;2023-05-21T12:49:56;98983.81;;;25.31;40.07
22653;BME280;11493;43.344;26.226;2023-05-21T12:52:27;98993.34;;;25.40;39.92
22653;BME280;11493;43.344;26.226;2023-05-21T12:54:55;98978.75;;;25.22;40.83
22653;BME280;11493;43.344;26.226;2023-05-21T12:57:26;98978.00;;;25.18;40.91
22653;BME280;11493;43.344;26.226;2023-05-21T13:00:00;98989.25;;;25.18;39.43
22653;BME280;11493;43.344;26.226;2023-05-21T13:02:39;98943.16;;;25.05;40.33
22653;BME280;11493;43.344;26.226;2023-05-21T13:05:14;98984.47;;;25.15;41.08
22653;BME280;11493;43.344;26.226;2023-05-21T13:07:45;98981.66;;;25.15;41.83
22653;BME280;11493;43.344;26.226;2023-05-21T13:10:14;98975.38;;;25.31;40.15
22653;BME280;11493;43.344;26.226;2023-05-21T13:12:43;98975.81;;;25.29;38.70
22653;BME280;11493;43.344;26.226;2023-05-21T13:15:10;98983.31;;;25.39;39.42